createdAt,value
2022-09-10T00:01:36.135Z,6.67
2022-09-10T00:04:03.643Z,6.23
2022-09-10T00:06:33.124Z,6.97
2022-09-10T00:09:01.219Z,6.40
2022-09-10T00:11:32.217Z,6.67
2022-09-10T00:14:04.357Z,6.20
2022-09-10T00:16:32.261Z,6.90
2022-09-10T00:19:01.105Z,6.40
2022-09-10T00:21:29.909Z,6.60
2022-09-10T00:23:57.364Z,6.40
2022-09-10T00:26:26.773Z,6.13
2022-09-10T00:28:55.455Z,5.80
2022-09-10T00:31:23.524Z,6.27
2022-09-10T00:33:52.494Z,5.47
2022-09-10T00:36:25.048Z,6.07
2022-09-10T00:38:57.786Z,6.10
2022-09-10T00:41:24.980Z,5.70
2022-09-10T00:43:53.315Z,6.20
2022-09-10T00:46:33.658Z,6.57
2022-09-10T00:49:05.803Z,6.27
2022-09-10T00:51:35.206Z,5.80
2022-09-10T00:54:03.918Z,6.10
2022-09-10T00:56:32.370Z,6.30
2022-09-10T00:58:59.321Z,5.80
2022-09-10T01:01:26.043Z,6.23
2022-09-10T01:03:54.356Z,5.63
2022-09-10T01:06:21.154Z,6.27
2022-09-10T01:08:47.869Z,5.23
2022-09-10T01:11:26.667Z,5.73
2022-09-10T01:14:02.352Z,5.77
2022-09-10T01:16:38.236Z,6.23
2022-09-10T01:19:23.080Z,6.93
2022-09-10T01:21:57.706Z,7.37
2022-09-10T01:24:58.362Z,6.30
2022-09-10T01:27:54.204Z,6.20
2022-09-10T01:30:35.596Z,6.40
2022-09-10T01:33:16.752Z,7.13
2022-09-10T01:36:09.623Z,6.63
2022-09-10T01:38:38.941Z,5.87
2022-09-10T01:41:05.950Z,6.43
2022-09-10T01:43:33.837Z,6.80
2022-09-10T01:46:22.216Z,6.13
2022-09-10T01:49:08.361Z,6.07
2022-09-10T01:52:00.181Z,6.67
2022-09-10T01:54:45.544Z,6.50
2022-09-10T01:57:50.301Z,7.23
2022-09-10T02:00:19.120Z,6.50
2022-09-10T02:03:01.030Z,7.10
2022-09-10T02:05:30.789Z,7.30
2022-09-10T02:08:01.946Z,7.40
2022-09-10T02:10:28.890Z,7.67
2022-09-10T02:12:55.938Z,7.23
2022-09-10T02:15:26.407Z,7.23
2022-09-10T02:17:53.700Z,7.70
2022-09-10T02:20:22.133Z,6.77
2022-09-10T02:22:53.373Z,6.77
2022-09-10T02:25:20.476Z,6.37
2022-09-10T02:27:47.293Z,6.37
2022-09-10T02:30:13.907Z,5.57
2022-09-10T02:32:40.597Z,6.90
2022-09-10T02:35:07.675Z,7.43
2022-09-10T02:37:34.394Z,7.30
2022-09-10T02:40:01.318Z,6.73
2022-09-10T02:42:27.973Z,7.10
2022-09-10T02:44:54.765Z,6.80
2022-09-10T02:47:21.361Z,7.97
2022-09-10T02:49:48.214Z,7.00
2022-09-10T02:52:14.837Z,7.13
2022-09-10T02:54:41.469Z,7.57
2022-09-10T02:57:08.252Z,7.20
2022-09-10T02:59:34.941Z,7.67
2022-09-10T03:02:01.657Z,6.90
2022-09-10T03:04:28.373Z,7.53
2022-09-10T03:06:55.392Z,8.23
2022-09-10T03:09:22.874Z,7.80
2022-09-10T03:11:51.234Z,7.80
2022-09-10T03:14:20.992Z,6.77
2022-09-10T03:16:47.955Z,8.20
2022-09-10T03:19:15.617Z,7.63
2022-09-10T03:21:42.725Z,7.50
2022-09-10T03:24:10.339Z,7.30
2022-09-10T03:26:37.418Z,7.23
2022-09-10T03:29:04.677Z,8.97
2022-09-10T03:31:31.372Z,7.90
2022-09-10T03:33:59.705Z,9.10
2022-09-10T03:36:29.402Z,8.63
2022-09-10T03:38:56.081Z,7.93
2022-09-10T03:41:22.718Z,8.03
2022-09-10T03:43:49.596Z,9.23
2022-09-10T03:46:16.386Z,9.13
2022-09-10T03:48:45.795Z,9.33
2022-09-10T03:51:12.906Z,8.30
2022-09-10T03:53:40.928Z,9.60
2022-09-10T03:56:08.486Z,9.33
2022-09-10T03:58:35.867Z,8.90
2022-09-10T04:01:03.150Z,8.40
2022-09-10T04:03:29.920Z,9.87
2022-09-10T04:05:58.513Z,8.50
2022-09-10T04:08:25.347Z,9.03
2022-09-10T04:10:51.999Z,9.30
2022-09-10T04:13:18.876Z,10.00
2022-09-10T04:15:46.220Z,9.87
2022-09-10T04:18:13.127Z,9.00
2022-09-10T04:20:40.502Z,8.60
2022-09-10T04:23:07.377Z,9.27
2022-09-10T04:25:34.180Z,9.97
2022-09-10T04:28:01.903Z,9.17
2022-09-10T04:30:28.973Z,9.93
2022-09-10T04:32:55.708Z,8.50
2022-09-10T04:35:22.494Z,8.60
2022-09-10T04:37:49.219Z,7.90
2022-09-10T04:40:21.410Z,9.63
2022-09-10T04:42:48.066Z,9.63
2022-09-10T04:45:15.172Z,9.33
2022-09-10T04:47:41.706Z,8.67
2022-09-10T04:50:08.910Z,9.13
2022-09-10T04:52:36.082Z,9.37
2022-09-10T04:55:02.861Z,10.10
2022-09-10T04:57:29.628Z,10.13
2022-09-10T04:59:57.810Z,8.50
2022-09-10T05:02:24.553Z,9.43
2022-09-10T05:04:51.254Z,8.53
2022-09-10T05:07:18.023Z,8.77
2022-09-10T05:09:44.634Z,9.30
2022-09-10T05:12:11.334Z,9.60
2022-09-10T05:14:38.164Z,9.67
2022-09-10T05:17:05.812Z,8.13
2022-09-10T05:19:32.484Z,9.80
2022-09-10T05:21:59.178Z,9.00
2022-09-10T05:24:27.378Z,8.83
2022-09-10T05:26:54.012Z,9.00
2022-09-10T05:29:22.046Z,10.27
2022-09-10T05:31:48.920Z,9.17
2022-09-10T05:34:15.634Z,10.13
2022-09-10T05:36:42.539Z,10.67
2022-09-10T05:39:09.205Z,9.90
2022-09-10T05:41:37.309Z,10.03
2022-09-10T05:44:05.154Z,9.57
2022-09-10T05:46:33.042Z,9.97
2022-09-10T05:48:59.666Z,10.17
2022-09-10T05:51:30.754Z,9.63
2022-09-10T05:53:57.964Z,8.13
2022-09-10T05:56:25.801Z,9.80
2022-09-10T05:58:52.617Z,10.27
2022-09-10T06:01:19.628Z,9.80
2022-09-10T06:03:46.307Z,9.83
2022-09-10T06:06:13.291Z,9.20
2022-09-10T06:08:40.431Z,10.87
2022-09-10T06:11:07.979Z,9.33
2022-09-10T06:13:35.113Z,10.40
2022-09-10T06:16:02.003Z,11.13
2022-09-10T06:18:29.070Z,10.20
2022-09-10T06:21:13.297Z,9.90
2022-09-10T06:23:40.275Z,9.90
2022-09-10T06:26:10.683Z,9.57
2022-09-10T06:28:37.683Z,9.70
2022-09-10T06:31:05.625Z,8.77
2022-09-10T06:33:33.846Z,8.13
2022-09-10T06:36:01.788Z,10.63
2022-09-10T06:38:33.731Z,9.90
2022-09-10T06:41:02.455Z,10.17
2022-09-10T06:43:32.872Z,8.97
2022-09-10T06:45:59.697Z,8.83
2022-09-10T06:48:49.657Z,9.33
2022-09-10T06:51:16.420Z,10.47
2022-09-10T06:53:44.462Z,10.40
2022-09-10T06:56:12.157Z,9.80
2022-09-10T06:58:39.735Z,10.67
2022-09-10T07:01:15.240Z,9.43
2022-09-10T07:03:43.455Z,9.80
2022-09-10T07:06:13.383Z,9.20
2022-09-10T07:08:40.435Z,9.47
2022-09-10T07:11:13.611Z,9.77
2022-09-10T07:13:41.138Z,9.43
2022-09-10T07:16:08.263Z,9.10
2022-09-10T07:18:35.472Z,9.57
2022-09-10T07:21:13.026Z,8.90
2022-09-10T07:23:40.568Z,7.83
2022-09-10T07:26:09.976Z,8.70
2022-09-10T07:28:38.240Z,9.00
2022-09-10T07:31:21.157Z,8.57
2022-09-10T07:33:48.605Z,9.20
2022-09-10T07:36:16.281Z,8.73
2022-09-10T07:39:04.366Z,9.50
2022-09-10T07:41:34.408Z,8.53
2022-09-10T07:44:01.039Z,8.90
2022-09-10T07:46:28.503Z,9.07
2022-09-10T07:48:57.636Z,7.97
2022-09-10T07:51:26.099Z,8.87
2022-09-10T07:53:54.207Z,8.67
2022-09-10T07:56:21.281Z,8.40
2022-09-10T07:58:47.864Z,8.93
2022-09-10T08:01:15.169Z,9.70
2022-09-10T08:03:41.868Z,8.47
2022-09-10T08:06:09.756Z,8.10
2022-09-10T08:08:38.692Z,7.73
2022-09-10T08:11:13.887Z,8.00
2022-09-10T08:13:42.088Z,7.53
2022-09-10T08:16:11.055Z,7.63
2022-09-10T08:18:38.250Z,7.23
2022-09-10T08:21:07.589Z,6.83
2022-09-10T08:23:34.590Z,6.23
2022-09-10T08:26:01.633Z,7.40
2022-09-10T08:28:28.429Z,6.07
2022-09-10T08:31:01.921Z,6.50
2022-09-10T08:33:29.889Z,5.70
2022-09-10T08:35:58.134Z,5.90
2022-09-10T08:38:37.096Z,5.83
2022-09-10T08:41:32.623Z,5.53
2022-09-10T08:44:10.314Z,4.90
2022-09-10T08:46:44.310Z,4.80
2022-09-10T08:49:43.183Z,5.07
2022-09-10T08:52:34.440Z,4.60
2022-09-10T08:55:19.344Z,4.27
2022-09-10T08:57:51.058Z,4.50
2022-09-10T09:00:24.749Z,4.90
2022-09-10T09:03:10.075Z,5.40
2022-09-10T09:05:46.511Z,5.40
2022-09-10T09:08:17.786Z,4.57
2022-09-10T09:11:11.177Z,5.10
2022-09-10T09:13:49.388Z,4.27
2022-09-10T09:16:22.884Z,3.87
2022-09-10T09:19:14.803Z,4.00
2022-09-10T09:21:55.782Z,4.43
2022-09-10T09:24:45.972Z,3.80
2022-09-10T09:27:17.033Z,4.07
2022-09-10T09:30:01.004Z,4.00
2022-09-10T09:32:31.501Z,3.83
2022-09-10T09:35:23.838Z,3.63
2022-09-10T09:38:02.037Z,2.93
2022-09-10T09:40:37.090Z,3.20
2022-09-10T09:43:24.341Z,2.60
2022-09-10T09:45:54.070Z,2.90
2022-09-10T09:48:25.241Z,2.80
2022-09-10T09:50:57.744Z,2.37
2022-09-10T09:53:27.651Z,3.10
2022-09-10T09:56:05.080Z,2.70
2022-09-10T09:58:37.716Z,2.30
2022-09-10T10:01:12.290Z,2.50
2022-09-10T10:04:22.347Z,2.60
2022-09-10T10:07:26.495Z,1.60
2022-09-10T10:09:57.017Z,1.80
2022-09-10T10:12:25.313Z,1.80
2022-09-10T10:14:54.830Z,1.60
2022-09-10T10:17:25.289Z,1.83
2022-09-10T10:20:05.271Z,1.80
2022-09-10T10:22:38.721Z,1.60
2022-09-10T10:25:45.432Z,1.50
2022-09-10T10:31:08.859Z,1.63
2022-09-10T10:33:40.054Z,2.10
2022-09-10T10:36:13.993Z,1.50
2022-09-10T10:38:51.990Z,1.60
2022-09-10T10:41:54.086Z,1.70
2022-09-10T10:44:27.927Z,1.70
2022-09-10T10:47:08.245Z,2.03
2022-09-10T10:49:55.109Z,1.83
2022-09-10T10:52:28.233Z,2.00
2022-09-10T10:55:11.563Z,1.80
2022-09-10T11:01:17.043Z,2.25
2022-09-10T11:04:07.980Z,1.67
2022-09-10T11:06:45.979Z,1.60
2022-09-10T11:09:43.819Z,1.80
2022-09-10T11:12:43.054Z,1.63
2022-09-10T11:15:22.313Z,1.80
2022-09-10T11:18:36.006Z,1.53
2022-09-10T11:21:58.841Z,1.67
2022-09-10T11:24:29.367Z,1.60
2022-09-10T11:27:07.799Z,1.45
2022-09-10T11:30:25.497Z,1.55
2022-09-10T11:33:02.144Z,1.63
2022-09-10T11:35:34.383Z,1.70
2022-09-10T11:38:31.501Z,1.45
2022-09-10T11:41:22.716Z,1.50
2022-09-10T11:44:14.713Z,1.50
2022-09-10T11:47:15.759Z,1.50
2022-09-10T11:50:22.199Z,1.50
2022-09-10T11:52:50.014Z,1.67
2022-09-10T11:55:23.571Z,1.38
2022-09-10T11:58:01.456Z,1.70
2022-09-10T12:00:32.721Z,1.50
2022-09-10T12:03:39.146Z,1.25
2022-09-10T12:06:36.512Z,1.10
2022-09-10T12:09:15.103Z,1.17
2022-09-10T12:11:56.999Z,1.10
2022-09-10T12:14:25.858Z,1.35
2022-09-10T12:16:59.284Z,0.85
2022-09-10T12:19:32.128Z,0.70
2022-09-10T12:22:06.638Z,0.80
2022-09-10T12:24:39.546Z,1.00
2022-09-10T12:27:08.531Z,0.73
2022-09-10T12:29:41.834Z,0.98
2022-09-10T12:32:10.273Z,0.90
2022-09-10T12:34:38.809Z,0.60
2022-09-10T12:37:06.211Z,0.90
2022-09-10T12:39:35.279Z,0.88
2022-09-10T12:42:23.441Z,0.77
2022-09-10T12:44:51.427Z,0.52
2022-09-10T12:47:28.043Z,0.60
2022-09-10T12:50:07.401Z,0.80
2022-09-10T12:52:51.245Z,0.80
2022-09-10T12:55:53.964Z,1.08
2022-09-10T12:58:39.916Z,1.02
2022-09-10T13:01:11.126Z,0.73
2022-09-10T13:03:59.351Z,0.80
2022-09-10T13:06:48.602Z,0.93
2022-09-10T13:09:22.161Z,1.10
2022-09-10T13:11:54.539Z,0.90
2022-09-10T13:14:34.895Z,1.38
2022-09-10T13:17:03.563Z,1.05
2022-09-10T13:19:36.142Z,1.30
2022-09-10T13:22:04.878Z,1.15
2022-09-10T13:24:35.885Z,1.30
2022-09-10T13:27:13.306Z,1.40
2022-09-10T13:29:47.666Z,1.65
2022-09-10T13:32:44.525Z,1.42
2022-09-10T13:35:52.965Z,1.60
2022-09-10T13:39:03.133Z,1.40
2022-09-10T13:42:18.624Z,1.83
2022-09-10T13:45:18.903Z,1.45
2022-09-10T13:48:00.572Z,1.33
2022-09-10T13:50:56.501Z,1.63
2022-09-10T13:53:28.824Z,1.83
2022-09-10T13:58:51.453Z,1.55
2022-09-10T14:01:46.546Z,1.65
2022-09-10T14:04:44.270Z,1.80
2022-09-10T14:07:22.578Z,1.40
2022-09-10T14:09:57.071Z,1.70
2022-09-10T14:12:29.924Z,1.52
2022-09-10T14:15:03.153Z,2.03
2022-09-10T14:17:42.249Z,1.58
2022-09-10T14:20:25.950Z,1.20
2022-09-10T14:23:18.502Z,1.40
2022-09-10T14:25:47.962Z,1.30
2022-09-10T14:28:17.209Z,1.45
2022-09-10T14:30:46.273Z,1.45
2022-09-10T14:33:35.722Z,1.63
2022-09-10T14:36:34.012Z,1.30
2022-09-10T14:39:20.264Z,1.50
2022-09-10T14:42:04.516Z,1.27
2022-09-10T14:44:39.769Z,1.25
2022-09-10T14:47:11.125Z,1.17
2022-09-10T14:49:47.436Z,0.75
2022-09-10T14:52:15.687Z,0.70
2022-09-10T14:54:46.165Z,0.85
2022-09-10T14:57:16.271Z,0.70
2022-09-10T14:59:46.632Z,0.95
2022-09-10T15:02:23.284Z,0.90
2022-09-10T15:05:01.540Z,1.00
2022-09-10T15:07:29.708Z,1.25
2022-09-10T15:09:59.656Z,1.25
2022-09-10T15:12:29.874Z,1.40
2022-09-10T15:14:58.356Z,1.90
2022-09-10T15:17:27.050Z,2.30
2022-09-10T15:19:56.957Z,2.20
2022-09-10T15:22:27.844Z,2.00
2022-09-10T15:25:12.562Z,2.10
2022-09-10T15:27:42.473Z,2.28
2022-09-10T15:30:10.563Z,2.90
2022-09-10T15:32:37.831Z,3.73
2022-09-10T15:35:06.351Z,2.85
2022-09-10T15:37:35.129Z,2.70
2022-09-10T15:40:04.557Z,3.22
2022-09-10T15:42:34.330Z,3.40
2022-09-10T15:45:01.297Z,3.30
2022-09-10T15:47:29.162Z,3.08
2022-09-10T15:49:56.968Z,3.40
2022-09-10T15:52:24.770Z,3.22
2022-09-10T15:54:52.895Z,3.90
2022-09-10T15:57:20.744Z,4.27
2022-09-10T15:59:48.741Z,3.88
2022-09-10T16:02:16.792Z,4.20
2022-09-10T16:04:43.794Z,4.65
2022-09-10T16:07:11.833Z,4.63
2022-09-10T16:09:39.143Z,4.40
2022-09-10T16:12:06.930Z,5.20
2022-09-10T16:14:34.982Z,4.23
2022-09-10T16:17:02.794Z,5.00
2022-09-10T16:19:31.251Z,5.63
2022-09-10T16:21:59.330Z,5.40
2022-09-10T16:24:26.229Z,5.30
2022-09-10T16:26:54.565Z,5.73
2022-09-10T16:29:22.072Z,4.77
2022-09-10T16:31:51.119Z,5.47
2022-09-10T16:34:20.927Z,4.80
2022-09-10T16:36:49.330Z,5.17
2022-09-10T16:39:17.942Z,5.43
2022-09-10T16:44:34.192Z,5.90
2022-09-10T16:47:02.286Z,5.70
2022-09-10T16:49:29.346Z,5.77
2022-09-10T16:51:57.303Z,5.40
2022-09-10T16:54:28.379Z,5.37
2022-09-10T16:56:57.131Z,5.33
2022-09-10T16:59:29.219Z,5.23
2022-09-10T17:02:13.508Z,4.83
2022-09-10T17:04:48.879Z,4.70
2022-09-10T17:07:16.881Z,4.70
2022-09-10T17:09:45.439Z,4.43
2022-09-10T17:12:14.431Z,4.27
2022-09-10T17:14:42.761Z,4.60
2022-09-10T17:17:11.045Z,5.27
2022-09-10T17:19:41.140Z,5.33
2022-09-10T17:22:10.972Z,5.03
2022-09-10T17:24:39.800Z,4.80
2022-09-10T17:27:07.999Z,5.00
2022-09-10T17:29:35.844Z,4.63
2022-09-10T17:34:48.362Z,6.13
2022-09-10T17:37:17.372Z,5.10
2022-09-10T17:39:48.559Z,5.00
2022-09-10T17:42:20.661Z,5.03
2022-09-10T17:44:50.776Z,5.30
2022-09-10T17:47:18.937Z,7.40
2022-09-10T17:49:49.448Z,5.40
2022-09-10T17:52:19.203Z,4.70
2022-09-10T17:54:47.787Z,5.37
2022-09-10T17:57:17.416Z,5.57
2022-09-10T17:59:46.522Z,5.43
2022-09-10T18:02:19.353Z,5.23
2022-09-10T18:04:51.504Z,5.30
2022-09-10T18:07:20.404Z,5.20
2022-09-10T18:09:51.973Z,5.13
2022-09-10T18:12:22.972Z,5.73
2022-09-10T18:14:52.289Z,6.27
2022-09-10T18:17:21.451Z,6.17
2022-09-10T18:19:52.179Z,6.30
2022-09-10T18:22:22.287Z,6.70
2022-09-10T18:24:50.715Z,6.43
2022-09-10T18:27:19.546Z,6.30
2022-09-10T18:29:48.217Z,5.33
2022-09-10T18:32:17.526Z,5.80
2022-09-10T18:34:45.501Z,5.87
2022-09-10T18:37:14.225Z,5.83
2022-09-10T18:39:42.579Z,5.87
2022-09-10T18:42:11.547Z,6.93
2022-09-10T18:44:39.815Z,6.77
2022-09-10T18:47:28.062Z,7.97
2022-09-10T18:49:59.369Z,7.33
2022-09-10T18:52:29.835Z,7.30
2022-09-10T18:54:58.182Z,8.00
2022-09-10T18:57:26.435Z,7.60
2022-09-10T18:59:55.931Z,8.23
2022-09-10T19:02:24.322Z,7.60
2022-09-10T19:05:11.767Z,6.87
2022-09-10T19:07:40.964Z,7.20
2022-09-10T19:10:09.187Z,7.57
2022-09-10T19:12:37.481Z,7.03
2022-09-10T19:15:05.255Z,6.97
2022-09-10T19:17:33.536Z,6.90
2022-09-10T19:20:01.445Z,7.13
2022-09-10T19:22:28.766Z,8.00
2022-09-10T19:24:57.975Z,7.43
2022-09-10T19:27:26.807Z,8.10
2022-09-10T19:29:56.366Z,7.17
2022-09-10T19:32:29.091Z,7.10
2022-09-10T19:35:03.013Z,7.60
2022-09-10T19:37:31.669Z,7.63
2022-09-10T19:40:01.860Z,7.97
2022-09-10T19:43:13.151Z,7.50
2022-09-10T19:45:41.674Z,6.03
2022-09-10T19:48:10.071Z,6.40
2022-09-10T19:50:41.105Z,6.20
2022-09-10T19:53:08.691Z,6.27
2022-09-10T19:55:41.239Z,6.87
2022-09-10T19:58:09.103Z,6.23
2022-09-10T20:00:46.927Z,6.50
2022-09-10T20:03:14.954Z,5.50
2022-09-10T20:05:43.135Z,6.20
2022-09-10T20:08:11.122Z,7.23
2022-09-10T20:10:39.429Z,6.60
2022-09-10T20:16:07.000Z,6.80
2022-09-10T20:18:38.020Z,7.33
2022-09-10T20:21:15.330Z,6.17
2022-09-10T20:23:45.335Z,6.47
2022-09-10T20:26:34.826Z,6.60
2022-09-10T20:29:09.953Z,6.53
2022-09-10T20:31:41.442Z,6.33
2022-09-10T20:34:12.519Z,6.47
2022-09-10T20:36:42.984Z,6.43
2022-09-10T20:39:13.985Z,6.30
2022-09-10T20:41:42.548Z,6.27
2022-09-10T20:44:13.344Z,6.30
2022-09-10T20:46:45.862Z,6.50
2022-09-10T20:49:16.626Z,6.57
2022-09-10T20:51:47.545Z,6.33
2022-09-10T20:54:19.563Z,6.70
2022-09-10T20:56:47.537Z,7.27
2022-09-10T20:59:17.743Z,7.10
2022-09-10T21:01:46.702Z,8.77
2022-09-10T21:04:14.516Z,7.50
2022-09-10T21:06:43.482Z,9.37
2022-09-10T21:09:13.029Z,9.30
2022-09-10T21:11:40.923Z,9.13
2022-09-10T21:14:10.944Z,9.30
2022-09-10T21:16:41.857Z,8.30
2022-09-10T21:19:17.028Z,6.90
2022-09-10T21:21:49.162Z,6.80
2022-09-10T21:24:22.741Z,6.67
2022-09-10T21:26:53.560Z,7.67
2022-09-10T21:29:22.738Z,8.67
2022-09-10T21:31:55.032Z,7.33
2022-09-10T21:34:23.637Z,7.53
2022-09-10T21:36:51.719Z,7.93
2022-09-10T21:39:20.399Z,7.60
2022-09-10T21:41:50.353Z,8.30
2022-09-10T21:44:20.729Z,7.33
2022-09-10T21:46:49.707Z,7.83
2022-09-10T21:49:18.107Z,7.73
2022-09-10T21:51:46.795Z,7.30
2022-09-10T21:54:21.714Z,7.90
2022-09-10T21:56:53.924Z,7.57
2022-09-10T21:59:22.675Z,7.60
2022-09-10T22:01:51.481Z,7.37
2022-09-10T22:04:22.793Z,7.30
2022-09-10T22:06:51.237Z,7.03
2022-09-10T22:09:20.110Z,7.07
2022-09-10T22:11:51.457Z,6.73
2022-09-10T22:14:23.070Z,7.33
2022-09-10T22:16:51.969Z,7.00
2022-09-10T22:19:26.147Z,7.53
2022-09-10T22:21:56.402Z,7.20
2022-09-10T22:24:24.697Z,7.40
2022-09-10T22:26:52.886Z,7.30
2022-09-10T22:29:21.678Z,7.63
2022-09-10T22:31:50.831Z,7.20
2022-09-10T22:34:19.008Z,7.20
2022-09-10T22:36:48.711Z,7.53
2022-09-10T22:39:18.136Z,7.97
2022-09-10T22:41:49.619Z,8.50
2022-09-10T22:44:20.613Z,8.17
2022-09-10T22:46:48.440Z,8.40
2022-09-10T22:49:16.755Z,7.20
2022-09-10T22:51:45.527Z,7.97
2022-09-10T22:54:14.330Z,8.30
2022-09-10T22:56:42.393Z,8.33
2022-09-10T22:59:14.149Z,8.33
2022-09-10T23:01:43.436Z,8.17
2022-09-10T23:04:11.764Z,8.57
2022-09-10T23:06:41.036Z,8.57
2022-09-10T23:09:13.973Z,8.60
2022-09-10T23:11:42.156Z,8.40
2022-09-10T23:14:13.221Z,10.60
2022-09-10T23:16:42.935Z,10.37
2022-09-10T23:19:15.749Z,10.20
2022-09-10T23:21:45.936Z,9.40
2022-09-10T23:24:17.768Z,10.67
2022-09-10T23:26:46.372Z,10.40
2022-09-10T23:29:17.596Z,10.60
2022-09-10T23:31:46.328Z,10.20
2022-09-10T23:34:19.314Z,10.43
2022-09-10T23:36:49.820Z,9.20
2022-09-10T23:39:22.692Z,8.73
2022-09-10T23:41:52.699Z,9.70
2022-09-10T23:44:20.616Z,9.47
2022-09-10T23:46:48.495Z,9.00
2022-09-10T23:49:16.338Z,8.80
2022-09-10T23:51:45.379Z,9.23
2022-09-10T23:54:13.544Z,9.17
2022-09-10T23:56:41.792Z,8.53
2022-09-10T23:59:09.659Z,8.60
